Time;durP1;ratioP1;P1;durP2;ratioP2;P2;SDS_P1;SDS_P2;PMS_P1;PMS_P2;Temp;Humidity;BMP_temperature;BMP_pressure;BME280_temperature;BME280_humidity;BME280_pressure;Samples;Min_cycle;Max_cycle;Signal;HPM_P1;HPM_P2
2024/04/01 00:00:15;;;;;;;;;;;;;;;;;;2097562;28;20729;-80
2024/04/01 00:01:16;;;;;;;;;;;;;;;;;;2096801;28;19975;-80
2024/04/01 00:02:17;;;;;;;;;;;;;;;;;;2096214;28;19929;-80
2024/04/01 00:03:18;;;;;;;;;;;;;;;;;;2096259;28;19940;-80
2024/04/01 00:04:18;;;;;;;;;;;;;;;;;;2095700;28;19935;-80
2024/04/01 00:05:19;;;;;;;;;;;;;;;;;;2093334;28;19936;-80
2024/04/01 00:06:21;;;;;;;;;;;;;;;;;;2092534;28;19974;-80
2024/04/01 00:07:21;;;;;;;;;;;;;;;;;;2091686;28;19931;-80
2024/04/01 00:08:22;;;;;;;;;;;;;;;;;;2092294;28;19971;-80
2024/04/01 00:09:24;;;;;;;;;;;;;;;;;;2093969;28;20038;-80
2024/04/01 00:10:25;;;;;;;;;;;;;;;;;;2091279;28;19940;-80
2024/04/01 00:11:26;;;;;;;;;;;;;;;;;;2093494;28;20527;-80
2024/04/01 00:12:26;;;;;;;;;;;;;;;;;;2091985;28;19940;-80
2024/04/01 00:13:28;;;;;;;;;;;;;;;;;;2090753;28;19964;-79
2024/04/01 00:14:28;;;;;;;;;;;;;;;;;;2092212;28;20482;-80
2024/04/01 00:15:29;;;;;;;;;;;;;;;;;;2089483;28;19929;-80
2024/04/01 00:16:29;;;;;;;;;;;;;;;;;;2090079;28;19935;-79
2024/04/01 00:17:31;;;;;;;;;;;;;;;;;;2093234;28;19948;-79
2024/04/01 00:18:31;;;;;;;;;;;;;;;;;;2092606;28;19936;-80
2024/04/01 00:19:32;;;;;;;;;;;;;;;;;;2092784;28;19928;-80
2024/04/01 00:20:34;;;;;;;;;;;;;;;;;;2092313;28;19928;-80
2024/04/01 00:21:34;;;;;;;;;;;;;;;;;;2092866;28;19929;-80
2024/04/01 00:22:34;;;;;;;;;;;;;;;;;;2090765;28;19935;-80
2024/04/01 00:23:36;;;;;;;;;;;;;;;;;;2092190;28;20051;-80
2024/04/01 00:24:39;;;;;;;;;;;;;;;;;;2090451;28;20012;-80
2024/04/01 00:25:39;;;;;;;;;;;;;;;;;;2091178;28;19928;-80
2024/04/01 00:26:40;;;;;;;;;;;;;;;;;;2091334;28;19933;-80
2024/04/01 00:27:40;;;;;;;;;;;;;;;;;;2090542;28;19933;-80
2024/04/01 00:28:42;;;;;;;;;;;;;;;;;;2090468;28;19924;-80
2024/04/01 00:29:42;;;;;;;;;;;;;;;;;;2092211;28;20012;-80
2024/04/01 00:30:43;;;;;;;;;;;;;;;;;;2090850;28;19951;-80
2024/04/01 00:31:44;;;;;;;;;;;;;;;;;;2092175;28;19936;-80
2024/04/01 00:32:45;;;;;;;;;;;;;;;;;;2091866;28;19932;-80
2024/04/01 00:33:45;;;;;;;;;;;;;;;;;;2091277;28;20300;-80
2024/04/01 00:34:46;;;;;;;;;;;;;;;;;;2092276;28;19929;-80
2024/04/01 00:35:47;;;;;;;;;;;;;;;;;;2092295;28;20296;-80
2024/04/01 00:36:48;;;;;;;;;;;;;;;;;;2092790;28;19929;-80
2024/04/01 00:37:49;;;;;;;;;;;;;;;;;;2093150;28;19935;-80
2024/04/01 00:38:50;;;;;;;;;;;;;;;;;;2091116;28;19928;-80
2024/04/01 00:39:52;;;;;;;;;;;;;;;;;;2092446;28;20253;-80
2024/04/01 00:40:53;;;;;;;;;;;;;;;;;;2092804;28;19928;-81
2024/04/01 00:41:54;;;;;;;;;;;;;;;;;;2090784;28;19934;-80
2024/04/01 00:43:02;;;;;;;;;;;;;;;;;;2092110;28;19994;-80
2024/04/01 00:44:03;;;;;;;;;;;;;;;;;;2091580;28;20059;-80
2024/04/01 00:45:05;;;;;;;;;;;;;;;;;;2092106;28;19933;-81
2024/04/01 00:46:05;;;;;;;;;;;;;;;;;;2093395;28;19977;-80
2024/04/01 00:47:06;;;;;;;;;;;;;;;;;;2092931;28;19940;-80
2024/04/01 00:48:06;;;;;;;;;;;;;;;;;;2090161;28;19932;-80
2024/04/01 00:49:08;;;;;;;;;;;;;;;;;;2093063;28;20300;-80
2024/04/01 00:50:09;;;;;;;;;;;;;;;;;;2091715;28;19969;-80
2024/04/01 00:51:09;;;;;;;;;;;;;;;;;;2092041;28;19936;-80
2024/04/01 00:52:10;;;;;;;;;;;;;;;;;;2090500;28;20300;-81
2024/04/01 00:53:11;;;;;;;;;;;;;;;;;;2091425;28;19943;-81
2024/04/01 00:54:12;;;;;;;;;;;;;;;;;;2093087;28;19928;-81
2024/04/01 00:55:14;;;;;;;;;;;;;;;;;;2090702;28;19925;-80
2024/04/01 00:56:14;;;;;;;;;;;;;;;;;;2089981;28;19939;-81
2024/04/01 00:57:16;;;;;;;;;;;;;;;;;;2091963;28;20627;-80
2024/04/01 00:58:16;;;;;;;;;;;;;;;;;;2092312;28;20277;-80
2024/04/01 00:59:17;;;;;;;;;;;;;;;;;;2091412;28;19940;-80
2024/04/01 01:00:18;;;;;;;;;;;;;;;;;;2092116;28;19929;-80
2024/04/01 01:01:19;;;;;;;;;;;;;;;;;;2092197;28;20298;-80
2024/04/01 01:02:20;;;;;;;;;;;;;;;;;;2090715;28;19973;-81
2024/04/01 01:03:20;;;;;;;;;;;;;;;;;;2092305;28;20014;-80
2024/04/01 01:04:21;;;;;;;;;;;;;;;;;;2093556;28;19933;-85
2024/04/01 01:05:23;;;;;;;;;;;;;;;;;;2091602;28;19975;-86
2024/04/01 01:06:24;;;;;;;;;;;;;;;;;;2092922;28;19929;-86
2024/04/01 01:07:24;;;;;;;;;;;;;;;;;;2091446;28;19935;-86
2024/04/01 01:08:25;;;;;;;;;;;;;;;;;;2091863;28;19929;-85
2024/04/01 01:09:26;;;;;;;;;;;;;;;;;;2091815;28;20081;-85
2024/04/01 01:10:31;;;;;;;;;;;;;;;;;;2089984;28;19929;-85
2024/04/01 01:11:31;;;;;;;;;;;;;;;;;;2092660;28;19929;-86
2024/04/01 01:12:32;;;;;;;;;;;;;;;;;;2091873;28;19932;-85
2024/04/01 01:13:33;;;;;;;;;;;;;;;;;;2091649;28;19935;-85
2024/04/01 01:14:34;;;;;;;;;;;;;;;;;;2091369;28;20437;-86
2024/04/01 01:15:34;;;;;;;;;;;;;;;;;;2090731;28;19928;-85
2024/04/01 01:16:36;;;;;;;;;;;;;;;;;;2091271;28;20058;-86
2024/04/01 01:17:38;;;;;;;;;;;;;;;;;;2091995;28;19964;-87
2024/04/01 01:18:39;;;;;;;;;;;;;;;;;;2089772;28;19928;-86
2024/04/01 01:19:39;;;;;;;;;;;;;;;;;;2093718;28;19963;-87
2024/04/01 01:20:40;;;;;;;;;;;;;;;;;;2093715;28;20818;-87
2024/04/01 01:21:41;;;;;;;;;;;;;;;;;;2094418;28;19976;-87
2024/04/01 01:22:43;;;;;;;;;;;;;;;;;;2094088;28;20010;-87
2024/04/01 01:23:43;;;;;;;;;;;;;;;;;;2090479;28;20019;-87
2024/04/01 01:24:44;;;;;;;;;;;;;;;;;;2093003;28;19925;-86
2024/04/01 01:25:44;;;;;;;;;;;;;;;;;;2091389;28;20031;-86
2024/04/01 01:26:46;;;;;;;;;;;;;;;;;;2090816;28;20398;-87
2024/04/01 01:27:47;;;;;;;;;;;;;;;;;;2092358;28;19999;-87
2024/04/01 01:28:47;;;;;;;;;;;;;;;;;;2091420;28;20342;-87
2024/04/01 01:29:48;;;;;;;;;;;;;;;;;;2090980;28;20353;-87
2024/04/01 01:30:49;;;;;;;;;;;;;;;;;;2092227;28;20054;-86
2024/04/01 01:31:50;;;;;;;;;;;;;;;;;;2090361;28;19932;-86
2024/04/01 01:32:51;;;;;;;;;;;;;;;;;;2093128;28;20390;-86
2024/04/01 01:33:51;;;;;;;;;;;;;;;;;;2091836;28;19929;-87
2024/04/01 01:34:54;;;;;;;;;;;;;;;;;;2092679;28;19979;-87
2024/04/01 01:35:54;;;;;;;;;;;;;;;;;;2091544;28;19928;-86
2024/04/01 01:36:54;;;;;;;;;;;;;;;;;;2093125;28;19935;-87
2024/04/01 01:37:58;;;;;;;;;;;;;;;;;;2090676;28;19951;-86
2024/04/01 01:38:58;;;;;;;;;;;;;;;;;;2090429;28;19925;-86
2024/04/01 01:39:59;;;;;;;;;;;;;;;;;;2093119;28;19990;-86
2024/04/01 01:40:59;;;;;;;;;;;;;;;;;;2090874;28;19925;-85
2024/04/01 01:42:01;;;;;;;;;;;;;;;;;;2092600;28;20061;-86
2024/04/01 01:43:01;;;;;;;;;;;;;;;;;;2091161;28;20304;-86
2024/04/01 01:44:02;;;;;;;;;;;;;;;;;;2087919;28;19928;-86
2024/04/01 01:45:03;;;;;;;;;;;;;;;;;;2092227;28;19950;-87
2024/04/01 01:46:04;;;;;;;;;;;;;;;;;;2093415;28;19935;-86
2024/04/01 01:47:05;;;;;;;;;;;;;;;;;;2092045;28;19928;-86
2024/04/01 01:48:05;;;;;;;;;;;;;;;;;;2089878;28;19928;-86
2024/04/01 01:49:06;;;;;;;;;;;;;;;;;;2092258;28;20304;-87
2024/04/01 01:50:08;;;;;;;;;;;;;;;;;;2092172;28;19932;-86
2024/04/01 01:51:08;;;;;;;;;;;;;;;;;;2091801;28;19948;-86
2024/04/01 01:52:09;;;;;;;;;;;;;;;;;;2093609;28;20315;-87
2024/04/01 01:53:11;;;;;;;;;;;;;;;;;;2092337;28;19928;-86
2024/04/01 01:54:12;;;;;;;;;;;;;;;;;;2092773;28;20027;-87
2024/04/01 01:55:13;;;;;;;;;;;;;;;;;;2088443;28;19929;-87
2024/04/01 01:56:13;;;;;;;;;;;;;;;;;;2092120;28;20303;-87
2024/04/01 01:57:15;;;;;;;;;;;;;;;;;;2091337;28;20288;-89
2024/04/01 01:58:16;;;;;;;;;;;;;;;;;;2091328;28;19925;-88
2024/04/01 01:59:17;;;;;;;;;;;;;;;;;;2092220;28;20050;-86
2024/04/01 02:00:17;;;;;;;;;;;;;;;;;;2092433;28;20395;-86
2024/04/01 02:01:18;;;;;;;;;;;;;;;;;;2090993;28;19932;-86
2024/04/01 02:02:19;;;;;;;;;;;;;;;;;;2090648;28;19955;-86
2024/04/01 02:03:20;;;;;;;;;;;;;;;;;;2092145;28;19981;-87
2024/04/01 02:04:20;;;;;;;;;;;;;;;;;;2091550;28;19956;-87
2024/04/01 02:05:21;;;;;;;;;;;;;;;;;;2091780;28;19993;-88
2024/04/01 02:06:22;;;;;;;;;;;;;;;;;;2092412;28;19935;-88
2024/04/01 02:07:23;;;;;;;;;;;;;;;;;;2090270;28;20401;-87
2024/04/01 02:08:25;;;;;;;;;;;;;;;;;;2092109;28;19928;-88
2024/04/01 02:09:25;;;;;;;;;;;;;;;;;;2093671;28;20300;-87
2024/04/01 02:10:27;;;;;;;;;;;;;;;;;;2091684;28;19928;-89
2024/04/01 02:11:28;;;;;;;;;;;;;;;;;;2093906;28;19924;-89
2024/04/01 02:12:28;;;;;;;;;;;;;;;;;;2093130;28;19955;-89
2024/04/01 02:13:29;;;;;;;;;;;;;;;;;;2091427;28;20041;-88
2024/04/01 02:14:31;;;;;;;;;;;;;;;;;;2091214;28;19924;-81
2024/04/01 02:15:31;;;;;;;;;;;;;;;;;;2093112;28;19951;-81
2024/04/01 02:16:32;;;;;;;;;;;;;;;;;;2091532;28;19929;-81
2024/04/01 02:17:33;;;;;;;;;;;;;;;;;;2092386;28;20391;-80
2024/04/01 02:18:34;;;;;;;;;;;;;;;;;;2090844;28;19936;-81
2024/04/01 02:19:35;;;;;;;;;;;;;;;;;;2090635;28;19929;-81
2024/04/01 02:20:35;;;;;;;;;;;;;;;;;;2090891;28;19929;-81
2024/04/01 02:21:37;;;;;;;;;;;;;;;;;;2092183;28;19971;-81
2024/04/01 02:22:37;;;;;;;;;;;;;;;;;;2090333;28;20358;-81
2024/04/01 02:23:39;;;;;;;;;;;;;;;;;;2091961;28;19935;-81
2024/04/01 02:24:40;;;;;;;;;;;;;;;;;;2091843;28;19935;-81
2024/04/01 02:25:41;;;;;;;;;;;;;;;;;;2092011;28;19947;-82
2024/04/01 02:26:42;;;;;;;;;;;;;;;;;;2089449;28;19940;-82
2024/04/01 02:27:42;;;;;;;;;;;;;;;;;;2092247;28;20026;-81
2024/04/01 02:28:43;;;;;;;;;;;;;;;;;;2094008;28;19985;-81
2024/04/01 02:29:44;;;;;;;;;;;;;;;;;;2090949;28;19929;-81
2024/04/01 02:30:45;;;;;;;;;;;;;;;;;;2090421;28;19928;-81
2024/04/01 02:31:45;;;;;;;;;;;;;;;;;;2092564;28;19935;-81
2024/04/01 02:32:46;;;;;;;;;;;;;;;;;;2090614;28;19925;-81
2024/04/01 02:33:47;;;;;;;;;;;;;;;;;;2089436;28;19947;-81
2024/04/01 02:34:48;;;;;;;;;;;;;;;;;;2091059;28;19947;-81
2024/04/01 02:35:50;;;;;;;;;;;;;;;;;;2091233;28;20433;-82
2024/04/01 02:36:50;;;;;;;;;;;;;;;;;;2090595;28;19931;-81
2024/04/01 02:37:52;;;;;;;;;;;;;;;;;;2094154;28;19990;-81
2024/04/01 02:38:54;;;;;;;;;;;;;;;;;;2091577;28;19925;-81
2024/04/01 02:39:55;;;;;;;;;;;;;;;;;;2090617;28;19964;-81
2024/04/01 02:40:55;;;;;;;;;;;;;;;;;;2089486;28;19940;-81
2024/04/01 02:41:57;;;;;;;;;;;;;;;;;;2091048;28;19928;-80
2024/04/01 02:42:57;;;;;;;;;;;;;;;;;;2090265;28;19935;-81
2024/04/01 02:43:58;;;;;;;;;;;;;;;;;;2091124;28;19990;-81
2024/04/01 02:44:58;;;;;;;;;;;;;;;;;;2081851;28;19929;-80
2024/04/01 02:46:00;;;;;;;;;;;;;;;;;;2083163;28;19932;-81
2024/04/01 02:47:00;;;;;;;;;;;;;;;;;;2083495;28;19933;-80
2024/04/01 02:48:01;;;;;;;;;;;;;;;;;;2093666;28;19971;-80
2024/04/01 02:49:04;;;;;;;;;;;;;;;;;;2090725;28;20043;-80
2024/04/01 02:50:04;;;;;;;;;;;;;;;;;;2092289;28;19952;-83
2024/04/01 02:51:05;;;;;;;;;;;;;;;;;;2091225;28;20381;-83
2024/04/01 02:52:06;;;;;;;;;;;;;;;;;;2091884;28;20056;-83
2024/04/01 02:53:07;;;;;;;;;;;;;;;;;;2091153;28;20023;-83
2024/04/01 02:54:09;;;;;;;;;;;;;;;;;;2091134;28;19940;-84
2024/04/01 02:55:10;;;;;;;;;;;;;;;;;;2092341;28;19928;-83
2024/04/01 02:56:10;;;;;;;;;;;;;;;;;;2090318;28;20027;-83
2024/04/01 02:57:12;;;;;;;;;;;;;;;;;;2092965;28;19932;-80
2024/04/01 02:58:12;;;;;;;;;;;;;;;;;;2092147;28;20607;-81
2024/04/01 02:59:13;;;;;;;;;;;;;;;;;;2090398;28;19939;-83
2024/04/01 03:00:16;;;;;;;;;;;;;;;;;;2090637;28;19954;-83
2024/04/01 03:01:17;;;;;;;;;;;;;;;;;;2091209;28;20462;-83
2024/04/01 03:02:18;;;;;;;;;;;;;;;;;;2091958;28;20027;-84
2024/04/01 03:03:18;;;;;;;;;;;;;;;;;;2090919;28;19947;-83
2024/04/01 03:04:18;;;;;;;;;;;;;;;;;;2091212;28;19940;-83
2024/04/01 03:05:20;;;;;;;;;;;;;;;;;;2089240;28;19928;-83
2024/04/01 03:06:20;;;;;;;;;;;;;;;;;;2092198;28;19924;-83
2024/04/01 03:07:22;;;;;;;;;;;;;;;;;;2092412;28;19937;-82
2024/04/01 03:08:23;;;;;;;;;;;;;;;;;;2090260;28;20572;-83
2024/04/01 03:09:26;;;;;;;;;;;;;;;;;;2092065;28;20055;-83
2024/04/01 03:10:26;;;;;;;;;;;;;;;;;;2088605;28;19932;-83
2024/04/01 03:11:27;;;;;;;;;;;;;;;;;;2091510;28;19935;-82
2024/04/01 03:12:27;;;;;;;;;;;;;;;;;;2091595;28;20384;-80
2024/04/01 03:13:29;;;;;;;;;;;;;;;;;;2091269;28;19928;-82
2024/04/01 03:14:29;;;;;;;;;;;;;;;;;;2091067;28;19978;-83
2024/04/01 03:15:30;;;;;;;;;;;;;;;;;;2092267;28;19928;-82
2024/04/01 03:16:30;;;;;;;;;;;;;;;;;;2092333;28;21050;-81
2024/04/01 03:17:32;;;;;;;;;;;;;;;;;;2088483;28;19933;-82
2024/04/01 03:18:32;;;;;;;;;;;;;;;;;;2082606;28;19955;-83
2024/04/01 03:19:33;;;;;;;;;;;;;;;;;;2083279;28;19995;-83
2024/04/01 03:20:33;;;;;;;;;;;;;;;;;;2087807;28;20073;-83
2024/04/01 03:21:35;;;;;;;;;;;;;;;;;;2092778;28;19928;-83
2024/04/01 03:22:35;;;;;;;;;;;;;;;;;;2090618;28;20256;-84
2024/04/01 03:23:36;;;;;;;;;;;;;;;;;;2089169;28;19933;-84
2024/04/01 03:31:56;;;;;;;;;;;;;;;;;;2056161;28;19926;-88
2024/04/01 21:08:08;;;;;;;1.75;1.10;;;;;;;;;;1964254;29;20048;-83
2024/04/01 21:09:10;;;;;;;3.72;1.42;;;;;;;;;;1969734;29;20063;-86
2024/04/01 21:10:22;;;;;;;3.13;1.40;;;;;;;;;;1989012;29;20589;-84
2024/04/01 21:12:14;;;;;;;3.80;1.50;;;;;;;;;;1990783;29;20062;-84
2024/04/01 21:13:29;;;;;;;2.53;1.42;;;;;;;;;;2007676;29;20045;-83
2024/04/01 21:14:30;;;;;;;2.83;1.25;;;;;;;;;;2018161;29;20128;-84
2024/04/01 21:17:45;;;;;;;2.38;1.20;;;;;;;;;;1998547;29;20444;-82
2024/04/01 21:26:26;;;;;;;2.33;1.30;;;;;;;;;;1991653;29;20474;-84
2024/04/01 21:27:30;;;;;;;3.17;1.40;;;;;;;;;;2000539;29;20058;-83
2024/04/01 21:29:31;;;;;;;2.08;1.25;;;;;;;;;;2005578;29;20114;-84
2024/04/01 23:38:32;;;;;;;3.53;1.90;;;;;;;;;;2107138;27;20632;-75
2024/04/01 23:39:32;;;;;;;3.38;2.35;;;;;;;;;;2096481;28;20072;-76
2024/04/01 23:40:36;;;;;;;;;;;;;;;;;;2093511;28;20064;-75
2024/04/01 23:41:37;;;;;;;3.42;2.03;;;;;;;;;;2092217;28;20291;-76
2024/04/01 23:42:39;;;;;;;;;;;;;;;;;;2086190;28;20045;-76
2024/04/01 23:43:39;;;;;;;4.05;1.92;;;;;;;;;;2079965;28;20435;-76
2024/04/01 23:44:40;;;;;;;;;;;;;;;;;;2081900;28;20049;-75
2024/04/01 23:45:48;;;;;;;2.87;1.83;;;;;;;;;;2082821;28;20345;-75
2024/04/01 23:46:50;;;;;;;2.53;1.85;;;;;;;;;;2081274;28;20711;-76
2024/04/01 23:47:50;;;;;;;4.85;2.30;;;;;;;;;;2081454;28;20106;-76
2024/04/01 23:48:51;;;;;;;;;;;;;;;;;;2076656;28;20041;-75
2024/04/01 23:49:52;;;;;;;3.63;2.40;;;;;;;;;;2073935;28;19922;-76
2024/04/01 23:50:54;;;;;;;;;;;;;;;;;;2073788;28;20100;-76
2024/04/01 23:51:55;;;;;;;4.45;2.10;;;;;;;;;;2072004;28;19932;-76
2024/04/01 23:52:56;;;;;;;;;;;;;;;;;;2072887;28;20057;-75
2024/04/01 23:53:59;;;;;;;3.23;2.07;;;;;;;;;;2075402;28;20432;-76
2024/04/01 23:54:59;;;;;;;3.95;2.40;;;;;;;;;;2072475;28;20042;-76
2024/04/01 23:56:00;;;;;;;;;;;;;;;;;;2073495;28;20060;-76
2024/04/01 23:57:01;;;;;;;3.30;1.80;;;;;;;;;;2074586;28;19971;-75
2024/04/01 23:58:03;;;;;;;3.35;2.25;;;;;;;;;;2073839;28;20787;-76
2024/04/01 23:59:04;;;;;;;4.13;2.13;;;;;;;;;;2072929;28;20061;-77
